Terminal Aerodrome Forecast
Issued by NWS

Home | Current Version | Previous Version | Text Only | Print | Product List | Glossary On
Versions: 1 2 3 4 5 6 7 8 9 10 11 12 13 14 15 16 17 18 19 20 21
741
FTUS44 KMAF 251916 AAA
TAFINK
TAF AMD
KINK 251916Z 2519/2618 26019G29KT P6SM SCT250
     FM260200 22008KT P6SM FEW200
     FM261200 27007KT P6SM SCT250
     FM261600 26013G23KT P6SM BKN250=

USA.gov is the U.S. government's official web portal to all federal, state and local government web resources and services.